CPS6 weather

Cornwall (Community Hospital McConnell Site) Heliport
Cornwall, Ontario, Canada

Public forecast

Using degrees Celsius for public forecast. Weather courtesy of forecast.io.

Closest aviation weather report (METAR) to Cornwall (Community Hospital McConnell Site) Heliport

Closest report is Massena International Richards Field, 7.4 nm (13.8 km) SW. Retrieved 2020/07/13 13:53 UTC (51 minutes ago):

KMSS 131353Z AUTO 33003KT 10SM FEW070 OVC110 22/17 A2981 RMK AO2 SLP094 T02220167

Closest aviation forecast (TAF) to Cornwall (Community Hospital McConnell Site) Heliport

Closest forecast is Massena International Richards Field, 7.4 nm (13.8 km) SW. Retrieved 2020/07/13 12:22 UTC (2 hours ago):

TAF KMSS 131120Z 1312/1412 00000KT P6SM VCSH BKN090 FM140800 VRB04KT P6SM VCSH BKN023